Terminal Aerodrome Forecast
Issued by NWS Hastings, NE

Home | Current Version | Previous Version | Text Only | Print | Product List | Glossary On
Versions: 1 2 3 4 5 6 7 8 9 10 11 12 13 14 15 16 17 18 19 20 21 22 23 24 25 26 27 28 29 30 31 32 33 34 35
000
FTUS43 KGID 240520
TAFGRI
TAF
KGRI 240520Z 2406/2506 11010KT P6SM SCT003 BKN006
     FM240900 11010KT 3SM BR BKN003
     FM241300 13008KT P6SM VCSH BKN003 OVC015
     FM241900 14010KT P6SM VCTS SCT015CB BKN025=

USA.gov is the U.S. government's official web portal to all federal, state and local government web resources and services.